sensor_id;sensor_type;location;lat;lon;timestamp;P1;durP1;ratioP1;P2;durP2;ratioP2
31782;SDS011;18351;47.560;9.708;2022-09-03T00:00:03;3.50;;;3.20;;
31782;SDS011;18351;47.560;9.708;2022-09-03T00:05:18;3.30;;;3.00;;
31782;SDS011;18351;47.560;9.708;2022-09-03T00:10:27;4.53;;;3.15;;
31782;SDS011;18351;47.560;9.708;2022-09-03T00:13:00;3.83;;;3.30;;
31782;SDS011;18351;47.560;9.708;2022-09-03T00:15:27;7.40;;;2.97;;
31782;SDS011;18351;47.560;9.708;2022-09-03T00:18:01;3.42;;;2.95;;
31782;SDS011;18351;47.560;9.708;2022-09-03T00:20:56;3.40;;;2.80;;
31782;SDS011;18351;47.560;9.708;2022-09-03T00:23:32;10.45;;;2.90;;
31782;SDS011;18351;47.560;9.708;2022-09-03T00:28:41;3.38;;;2.63;;
31782;SDS011;18351;47.560;9.708;2022-09-03T00:31:26;3.53;;;2.70;;
31782;SDS011;18351;47.560;9.708;2022-09-03T00:34:08;4.57;;;2.80;;
31782;SDS011;18351;47.560;9.708;2022-09-03T00:36:40;2.75;;;2.10;;
31782;SDS011;18351;47.560;9.708;2022-09-03T00:39:16;2.30;;;2.10;;
31782;SDS011;18351;47.560;9.708;2022-09-03T00:41:50;2.80;;;2.47;;
31782;SDS011;18351;47.560;9.708;2022-09-03T00:52:58;3.13;;;2.25;;
31782;SDS011;18351;47.560;9.708;2022-09-03T01:01:30;2.88;;;2.53;;
31782;SDS011;18351;47.560;9.708;2022-09-03T01:09:52;4.65;;;2.38;;
31782;SDS011;18351;47.560;9.708;2022-09-03T01:15:26;3.58;;;1.95;;
31782;SDS011;18351;47.560;9.708;2022-09-03T01:18:01;2.33;;;2.13;;
31782;SDS011;18351;47.560;9.708;2022-09-03T01:20:50;4.13;;;2.20;;
31782;SDS011;18351;47.560;9.708;2022-09-03T01:36:53;2.10;;;1.90;;
31782;SDS011;18351;47.560;9.708;2022-09-03T01:39:40;2.78;;;1.98;;
31782;SDS011;18351;47.560;9.708;2022-09-03T01:45:18;2.72;;;1.85;;
31782;SDS011;18351;47.560;9.708;2022-09-03T01:50:57;2.58;;;2.17;;
31782;SDS011;18351;47.560;9.708;2022-09-03T01:59:06;1.75;;;1.60;;
31782;SDS011;18351;47.560;9.708;2022-09-03T02:01:45;9.00;;;6.55;;
31782;SDS011;18351;47.560;9.708;2022-09-03T02:04:31;9.40;;;6.57;;
31782;SDS011;18351;47.560;9.708;2022-09-03T02:06:58;9.18;;;7.25;;
31782;SDS011;18351;47.560;9.708;2022-09-03T02:09:25;7.95;;;6.03;;
31782;SDS011;18351;47.560;9.708;2022-09-03T02:12:34;8.95;;;5.80;;
31782;SDS011;18351;47.560;9.708;2022-09-03T02:14:42;8.05;;;5.72;;
31782;SDS011;18351;47.560;9.708;2022-09-03T02:17:08;8.85;;;7.15;;
31782;SDS011;18351;47.560;9.708;2022-09-03T02:19:35;11.15;;;7.82;;
31782;SDS011;18351;47.560;9.708;2022-09-03T02:22:02;8.57;;;7.28;;
31782;SDS011;18351;47.560;9.708;2022-09-03T02:24:28;11.27;;;7.88;;
31782;SDS011;18351;47.560;9.708;2022-09-03T02:26:54;8.15;;;7.25;;
31782;SDS011;18351;47.560;9.708;2022-09-03T02:29:20;8.93;;;7.97;;
31782;SDS011;18351;47.560;9.708;2022-09-03T02:31:46;12.13;;;8.95;;
31782;SDS011;18351;47.560;9.708;2022-09-03T02:34:12;12.13;;;8.23;;
31782;SDS011;18351;47.560;9.708;2022-09-03T02:36:39;11.40;;;8.25;;
31782;SDS011;18351;47.560;9.708;2022-09-03T02:39:06;10.85;;;8.45;;
31782;SDS011;18351;47.560;9.708;2022-09-03T02:41:32;8.48;;;7.57;;
31782;SDS011;18351;47.560;9.708;2022-09-03T02:44:07;10.75;;;8.52;;
31782;SDS011;18351;47.560;9.708;2022-09-03T02:46:39;8.30;;;7.50;;
31782;SDS011;18351;47.560;9.708;2022-09-03T02:49:10;8.15;;;6.70;;
31782;SDS011;18351;47.560;9.708;2022-09-03T02:51:37;8.73;;;7.57;;
31782;SDS011;18351;47.560;9.708;2022-09-03T02:54:05;8.63;;;7.70;;
31782;SDS011;18351;47.560;9.708;2022-09-03T02:56:30;10.20;;;8.23;;
31782;SDS011;18351;47.560;9.708;2022-09-03T02:58:56;8.13;;;7.18;;
31782;SDS011;18351;47.560;9.708;2022-09-03T03:01:22;7.88;;;7.00;;
31782;SDS011;18351;47.560;9.708;2022-09-03T03:03:48;8.95;;;7.20;;
31782;SDS011;18351;47.560;9.708;2022-09-03T03:06:14;7.50;;;6.80;;
31782;SDS011;18351;47.560;9.708;2022-09-03T03:08:39;10.85;;;7.72;;
31782;SDS011;18351;47.560;9.708;2022-09-03T03:11:05;9.38;;;7.55;;
31782;SDS011;18351;47.560;9.708;2022-09-03T03:13:31;10.90;;;8.13;;
31782;SDS011;18351;47.560;9.708;2022-09-03T03:15:58;8.77;;;6.72;;
31782;SDS011;18351;47.560;9.708;2022-09-03T03:18:25;9.35;;;7.53;;
31782;SDS011;18351;47.560;9.708;2022-09-03T03:20:51;9.63;;;8.27;;
31782;SDS011;18351;47.560;9.708;2022-09-03T03:23:17;10.07;;;7.97;;
31782;SDS011;18351;47.560;9.708;2022-09-03T03:25:42;9.70;;;8.30;;
31782;SDS011;18351;47.560;9.708;2022-09-03T03:28:08;8.75;;;7.90;;
31782;SDS011;18351;47.560;9.708;2022-09-03T03:30:36;10.52;;;8.95;;
31782;SDS011;18351;47.560;9.708;2022-09-03T03:33:04;13.40;;;9.35;;
31782;SDS011;18351;47.560;9.708;2022-09-03T03:35:30;10.48;;;8.35;;
31782;SDS011;18351;47.560;9.708;2022-09-03T03:37:56;10.43;;;9.25;;
31782;SDS011;18351;47.560;9.708;2022-09-03T03:40:23;9.25;;;8.35;;
31782;SDS011;18351;47.560;9.708;2022-09-03T03:42:48;11.75;;;9.38;;
31782;SDS011;18351;47.560;9.708;2022-09-03T03:45:14;9.38;;;8.48;;
31782;SDS011;18351;47.560;9.708;2022-09-03T03:47:40;10.18;;;9.05;;
31782;SDS011;18351;47.560;9.708;2022-09-03T03:50:06;11.65;;;8.90;;
31782;SDS011;18351;47.560;9.708;2022-09-03T03:52:32;11.68;;;9.50;;
31782;SDS011;18351;47.560;9.708;2022-09-03T03:54:57;10.55;;;9.20;;
31782;SDS011;18351;47.560;9.708;2022-09-03T03:57:23;12.65;;;8.82;;
31782;SDS011;18351;47.560;9.708;2022-09-03T03:59:48;16.02;;;9.93;;
31782;SDS011;18351;47.560;9.708;2022-09-03T04:02:15;10.93;;;8.68;;
31782;SDS011;18351;47.560;9.708;2022-09-03T04:04:41;9.23;;;7.82;;
31782;SDS011;18351;47.560;9.708;2022-09-03T04:07:07;7.20;;;6.50;;
31782;SDS011;18351;47.560;9.708;2022-09-03T04:09:33;4.00;;;3.58;;
31782;SDS011;18351;47.560;9.708;2022-09-03T04:11:59;2.92;;;2.00;;
31782;SDS011;18351;47.560;9.708;2022-09-03T04:14:25;4.38;;;1.83;;
31782;SDS011;18351;47.560;9.708;2022-09-03T04:16:51;2.45;;;2.20;;
31782;SDS011;18351;47.560;9.708;2022-09-03T04:19:17;2.22;;;1.85;;
31782;SDS011;18351;47.560;9.708;2022-09-03T04:21:43;1.70;;;1.60;;
31782;SDS011;18351;47.560;9.708;2022-09-03T04:24:09;1.98;;;1.67;;
31782;SDS011;18351;47.560;9.708;2022-09-03T04:26:35;1.73;;;1.63;;
31782;SDS011;18351;47.560;9.708;2022-09-03T04:29:05;2.33;;;1.60;;
31782;SDS011;18351;47.560;9.708;2022-09-03T04:31:32;1.67;;;1.58;;
31782;SDS011;18351;47.560;9.708;2022-09-03T04:33:59;3.38;;;1.92;;
31782;SDS011;18351;47.560;9.708;2022-09-03T04:36:26;1.63;;;1.50;;
31782;SDS011;18351;47.560;9.708;2022-09-03T04:38:53;5.00;;;2.03;;
31782;SDS011;18351;47.560;9.708;2022-09-03T04:41:21;1.70;;;1.55;;
31782;SDS011;18351;47.560;9.708;2022-09-03T04:43:49;2.65;;;1.60;;
31782;SDS011;18351;47.560;9.708;2022-09-03T04:46:16;2.00;;;1.80;;
31782;SDS011;18351;47.560;9.708;2022-09-03T04:48:42;2.13;;;1.75;;
31782;SDS011;18351;47.560;9.708;2022-09-03T04:51:09;2.58;;;1.92;;
31782;SDS011;18351;47.560;9.708;2022-09-03T04:53:41;3.42;;;2.20;;
31782;SDS011;18351;47.560;9.708;2022-09-03T04:56:13;2.28;;;1.92;;
31782;SDS011;18351;47.560;9.708;2022-09-03T04:58:42;2.45;;;2.05;;
31782;SDS011;18351;47.560;9.708;2022-09-03T05:01:09;2.25;;;1.80;;
31782;SDS011;18351;47.560;9.708;2022-09-03T05:03:36;2.25;;;1.95;;
31782;SDS011;18351;47.560;9.708;2022-09-03T05:06:02;6.03;;;2.10;;
31782;SDS011;18351;47.560;9.708;2022-09-03T05:08:29;1.80;;;1.70;;
31782;SDS011;18351;47.560;9.708;2022-09-03T05:10:57;2.70;;;1.85;;
31782;SDS011;18351;47.560;9.708;2022-09-03T05:13:24;3.80;;;1.70;;
31782;SDS011;18351;47.560;9.708;2022-09-03T05:15:50;2.20;;;1.70;;
31782;SDS011;18351;47.560;9.708;2022-09-03T05:18:15;2.25;;;1.52;;
31782;SDS011;18351;47.560;9.708;2022-09-03T05:20:42;1.75;;;1.65;;
31782;SDS011;18351;47.560;9.708;2022-09-03T05:23:08;1.58;;;1.48;;
31782;SDS011;18351;47.560;9.708;2022-09-03T05:25:33;2.42;;;1.45;;
31782;SDS011;18351;47.560;9.708;2022-09-03T05:28:02;1.52;;;1.40;;
31782;SDS011;18351;47.560;9.708;2022-09-03T05:30:27;1.70;;;1.13;;
31782;SDS011;18351;47.560;9.708;2022-09-03T05:32:53;2.55;;;1.67;;
31782;SDS011;18351;47.560;9.708;2022-09-03T05:35:19;2.00;;;1.45;;
31782;SDS011;18351;47.560;9.708;2022-09-03T05:37:44;1.73;;;1.40;;
31782;SDS011;18351;47.560;9.708;2022-09-03T05:40:10;3.85;;;1.50;;
31782;SDS011;18351;47.560;9.708;2022-09-03T05:42:36;2.25;;;1.55;;
31782;SDS011;18351;47.560;9.708;2022-09-03T05:45:04;1.30;;;1.20;;
31782;SDS011;18351;47.560;9.708;2022-09-03T05:47:34;1.80;;;1.20;;
31782;SDS011;18351;47.560;9.708;2022-09-03T05:50:04;1.40;;;1.27;;
31782;SDS011;18351;47.560;9.708;2022-09-03T05:52:32;1.10;;;1.00;;
31782;SDS011;18351;47.560;9.708;2022-09-03T05:54:58;2.13;;;1.60;;
31782;SDS011;18351;47.560;9.708;2022-09-03T05:57:23;1.75;;;1.50;;
31782;SDS011;18351;47.560;9.708;2022-09-03T05:59:49;2.88;;;1.50;;
31782;SDS011;18351;47.560;9.708;2022-09-03T06:02:15;2.38;;;1.30;;
31782;SDS011;18351;47.560;9.708;2022-09-03T06:04:43;1.95;;;1.50;;
31782;SDS011;18351;47.560;9.708;2022-09-03T06:07:09;1.90;;;1.50;;
31782;SDS011;18351;47.560;9.708;2022-09-03T06:09:35;2.22;;;1.50;;
31782;SDS011;18351;47.560;9.708;2022-09-03T06:12:01;2.63;;;1.55;;
31782;SDS011;18351;47.560;9.708;2022-09-03T06:14:26;3.03;;;1.63;;
31782;SDS011;18351;47.560;9.708;2022-09-03T06:16:52;1.70;;;1.30;;
31782;SDS011;18351;47.560;9.708;2022-09-03T06:19:19;2.33;;;1.38;;
31782;SDS011;18351;47.560;9.708;2022-09-03T06:21:45;1.85;;;1.48;;
31782;SDS011;18351;47.560;9.708;2022-09-03T06:24:12;2.45;;;1.52;;
31782;SDS011;18351;47.560;9.708;2022-09-03T06:26:41;1.55;;;1.45;;
31782;SDS011;18351;47.560;9.708;2022-09-03T06:29:07;2.72;;;1.50;;
31782;SDS011;18351;47.560;9.708;2022-09-03T06:31:33;6.22;;;1.58;;
31782;SDS011;18351;47.560;9.708;2022-09-03T06:33:59;1.30;;;1.20;;
31782;SDS011;18351;47.560;9.708;2022-09-03T06:36:26;1.40;;;1.10;;
31782;SDS011;18351;47.560;9.708;2022-09-03T06:38:52;2.70;;;1.83;;
31782;SDS011;18351;47.560;9.708;2022-09-03T06:41:20;2.17;;;1.65;;
31782;SDS011;18351;47.560;9.708;2022-09-03T06:43:54;5.28;;;1.55;;
31782;SDS011;18351;47.560;9.708;2022-09-03T06:46:35;1.60;;;1.02;;
31782;SDS011;18351;47.560;9.708;2022-09-03T06:49:03;1.20;;;1.13;;
31782;SDS011;18351;47.560;9.708;2022-09-03T06:51:30;1.30;;;1.20;;
31782;SDS011;18351;47.560;9.708;2022-09-03T06:54:01;2.28;;;1.40;;
31782;SDS011;18351;47.560;9.708;2022-09-03T06:56:30;3.88;;;1.40;;
31782;SDS011;18351;47.560;9.708;2022-09-03T06:58:57;2.53;;;1.60;;
31782;SDS011;18351;47.560;9.708;2022-09-03T07:01:27;1.45;;;1.13;;
31782;SDS011;18351;47.560;9.708;2022-09-03T07:03:58;1.70;;;1.60;;
31782;SDS011;18351;47.560;9.708;2022-09-03T07:06:32;2.72;;;1.92;;
31782;SDS011;18351;47.560;9.708;2022-09-03T07:09:05;4.15;;;1.45;;
31782;SDS011;18351;47.560;9.708;2022-09-03T07:11:31;2.10;;;1.30;;
31782;SDS011;18351;47.560;9.708;2022-09-03T07:13:59;2.75;;;1.70;;
31782;SDS011;18351;47.560;9.708;2022-09-03T07:16:26;1.48;;;1.38;;
31782;SDS011;18351;47.560;9.708;2022-09-03T07:18:57;6.22;;;1.90;;
31782;SDS011;18351;47.560;9.708;2022-09-03T07:21:24;2.63;;;1.30;;
31782;SDS011;18351;47.560;9.708;2022-09-03T07:23:52;2.90;;;1.70;;
31782;SDS011;18351;47.560;9.708;2022-09-03T07:26:20;1.85;;;1.40;;
31782;SDS011;18351;47.560;9.708;2022-09-03T07:28:47;2.75;;;1.90;;
31782;SDS011;18351;47.560;9.708;2022-09-03T07:31:14;1.45;;;1.30;;
31782;SDS011;18351;47.560;9.708;2022-09-03T07:33:43;1.55;;;1.45;;
31782;SDS011;18351;47.560;9.708;2022-09-03T07:36:11;3.45;;;1.50;;
31782;SDS011;18351;47.560;9.708;2022-09-03T07:38:41;5.78;;;1.60;;
31782;SDS011;18351;47.560;9.708;2022-09-03T07:41:08;2.80;;;1.58;;
31782;SDS011;18351;47.560;9.708;2022-09-03T07:43:39;3.25;;;1.33;;
31782;SDS011;18351;47.560;9.708;2022-09-03T07:46:11;1.42;;;1.30;;
31782;SDS011;18351;47.560;9.708;2022-09-03T07:48:40;2.45;;;1.58;;
31782;SDS011;18351;47.560;9.708;2022-09-03T07:51:07;3.25;;;1.45;;
31782;SDS011;18351;47.560;9.708;2022-09-03T07:53:33;3.30;;;1.83;;
31782;SDS011;18351;47.560;9.708;2022-09-03T07:56:01;2.50;;;2.10;;
31782;SDS011;18351;47.560;9.708;2022-09-03T07:58:29;3.13;;;2.13;;
31782;SDS011;18351;47.560;9.708;2022-09-03T08:00:55;2.35;;;2.13;;
31782;SDS011;18351;47.560;9.708;2022-09-03T08:03:21;3.35;;;2.00;;
31782;SDS011;18351;47.560;9.708;2022-09-03T08:05:47;4.15;;;2.00;;
31782;SDS011;18351;47.560;9.708;2022-09-03T08:08:12;2.42;;;1.75;;
31782;SDS011;18351;47.560;9.708;2022-09-03T08:10:39;2.50;;;1.70;;
31782;SDS011;18351;47.560;9.708;2022-09-03T08:13:05;1.35;;;1.25;;
31782;SDS011;18351;47.560;9.708;2022-09-03T08:15:31;2.38;;;1.52;;
31782;SDS011;18351;47.560;9.708;2022-09-03T08:18:02;1.90;;;1.27;;
31782;SDS011;18351;47.560;9.708;2022-09-03T08:20:28;3.50;;;1.40;;
31782;SDS011;18351;47.560;9.708;2022-09-03T08:23:02;3.15;;;1.10;;
31782;SDS011;18351;47.560;9.708;2022-09-03T08:25:28;6.32;;;1.33;;
31782;SDS011;18351;47.560;9.708;2022-09-03T08:27:56;2.30;;;1.65;;
31782;SDS011;18351;47.560;9.708;2022-09-03T08:30:23;2.08;;;1.45;;
31782;SDS011;18351;47.560;9.708;2022-09-03T08:32:49;1.70;;;1.60;;
31782;SDS011;18351;47.560;9.708;2022-09-03T08:35:14;1.45;;;1.35;;
31782;SDS011;18351;47.560;9.708;2022-09-03T08:37:40;1.88;;;1.52;;
31782;SDS011;18351;47.560;9.708;2022-09-03T08:40:06;2.10;;;1.60;;
31782;SDS011;18351;47.560;9.708;2022-09-03T08:45:02;3.83;;;1.40;;
31782;SDS011;18351;47.560;9.708;2022-09-03T08:52:50;1.27;;;1.20;;
31782;SDS011;18351;47.560;9.708;2022-09-03T08:55:20;2.28;;;1.67;;
31782;SDS011;18351;47.560;9.708;2022-09-03T08:58:14;2.85;;;1.42;;
31782;SDS011;18351;47.560;9.708;2022-09-03T09:06:05;2.13;;;1.98;;
31782;SDS011;18351;47.560;9.708;2022-09-03T09:11:31;1.52;;;1.40;;
31782;SDS011;18351;47.560;9.708;2022-09-03T09:22:33;2.17;;;1.63;;
31782;SDS011;18351;47.560;9.708;2022-09-03T09:25:33;1.70;;;1.58;;
31782;SDS011;18351;47.560;9.708;2022-09-03T09:30:43;4.20;;;1.60;;
31782;SDS011;18351;47.560;9.708;2022-09-03T09:33:11;2.22;;;1.80;;
31782;SDS011;18351;47.560;9.708;2022-09-03T09:35:37;2.80;;;1.95;;
31782;SDS011;18351;47.560;9.708;2022-09-03T09:38:06;3.25;;;1.90;;
31782;SDS011;18351;47.560;9.708;2022-09-03T09:40:39;2.00;;;1.50;;
31782;SDS011;18351;47.560;9.708;2022-09-03T09:45:40;2.67;;;1.77;;
31782;SDS011;18351;47.560;9.708;2022-09-03T09:48:27;2.53;;;1.80;;
31782;SDS011;18351;47.560;9.708;2022-09-03T09:53:37;6.45;;;2.45;;
31782;SDS011;18351;47.560;9.708;2022-09-03T09:56:03;1.95;;;1.70;;
31782;SDS011;18351;47.560;9.708;2022-09-03T09:58:30;1.85;;;1.67;;
31782;SDS011;18351;47.560;9.708;2022-09-03T10:03:50;2.08;;;1.85;;
31782;SDS011;18351;47.560;9.708;2022-09-03T10:06:32;1.88;;;1.55;;
31782;SDS011;18351;47.560;9.708;2022-09-03T10:09:18;3.63;;;1.60;;
31782;SDS011;18351;47.560;9.708;2022-09-03T10:17:29;1.65;;;1.55;;
31782;SDS011;18351;47.560;9.708;2022-09-03T10:20:17;2.17;;;1.80;;
31782;SDS011;18351;47.560;9.708;2022-09-03T10:23:05;1.75;;;1.60;;
31782;SDS011;18351;47.560;9.708;2022-09-03T10:28:04;2.45;;;1.58;;
31782;SDS011;18351;47.560;9.708;2022-09-03T10:30:36;2.05;;;1.85;;
31782;SDS011;18351;47.560;9.708;2022-09-03T10:33:15;2.10;;;1.90;;
31782;SDS011;18351;47.560;9.708;2022-09-03T10:35:52;2.22;;;2.03;;
31782;SDS011;18351;47.560;9.708;2022-09-03T10:49:55;2.85;;;1.80;;
31782;SDS011;18351;47.560;9.708;2022-09-03T10:57:59;2.75;;;1.75;;
31782;SDS011;18351;47.560;9.708;2022-09-03T11:00:29;1.52;;;1.40;;
31782;SDS011;18351;47.560;9.708;2022-09-03T11:03:18;1.60;;;1.50;;
31782;SDS011;18351;47.560;9.708;2022-09-03T11:09:00;1.33;;;1.23;;
31782;SDS011;18351;47.560;9.708;2022-09-03T11:11:43;1.00;;;1.00;;
31782;SDS011;18351;47.560;9.708;2022-09-03T11:14:14;2.17;;;1.90;;
31782;SDS011;18351;47.560;9.708;2022-09-03T11:16:53;2.78;;;1.10;;
31782;SDS011;18351;47.560;9.708;2022-09-03T11:19:27;2.08;;;1.27;;
31782;SDS011;18351;47.560;9.708;2022-09-03T11:22:01;1.38;;;1.27;;
31782;SDS011;18351;47.560;9.708;2022-09-03T11:24:29;2.17;;;1.50;;
31782;SDS011;18351;47.560;9.708;2022-09-03T11:30:22;6.55;;;2.90;;
31782;SDS011;18351;47.560;9.708;2022-09-03T11:32:38;4.43;;;2.53;;
31782;SDS011;18351;47.560;9.708;2022-09-03T11:35:24;2.50;;;2.20;;
31782;SDS011;18351;47.560;9.708;2022-09-03T11:37:59;4.18;;;2.63;;
31782;SDS011;18351;47.560;9.708;2022-09-03T11:40:36;2.83;;;2.10;;
31782;SDS011;18351;47.560;9.708;2022-09-03T11:43:07;2.72;;;2.10;;
31782;SDS011;18351;47.560;9.708;2022-09-03T11:45:39;4.05;;;1.80;;
31782;SDS011;18351;47.560;9.708;2022-09-03T11:51:14;3.33;;;2.38;;
31782;SDS011;18351;47.560;9.708;2022-09-03T11:54:06;2.75;;;1.55;;
31782;SDS011;18351;47.560;9.708;2022-09-03T11:56:38;2.20;;;1.90;;
31782;SDS011;18351;47.560;9.708;2022-09-03T11:59:16;2.42;;;1.88;;
31782;SDS011;18351;47.560;9.708;2022-09-03T12:01:43;1.63;;;1.52;;
31782;SDS011;18351;47.560;9.708;2022-09-03T12:04:14;4.47;;;1.95;;
31782;SDS011;18351;47.560;9.708;2022-09-03T12:06:46;3.85;;;2.42;;
31782;SDS011;18351;47.560;9.708;2022-09-03T12:15:35;2.95;;;2.50;;
31782;SDS011;18351;47.560;9.708;2022-09-03T12:18:29;9.80;;;3.08;;
31782;SDS011;18351;47.560;9.708;2022-09-03T12:23:28;5.22;;;2.83;;
31782;SDS011;18351;47.560;9.708;2022-09-03T12:26:42;5.43;;;3.15;;
31782;SDS011;18351;47.560;9.708;2022-09-03T12:28:52;5.13;;;3.28;;
31782;SDS011;18351;47.560;9.708;2022-09-03T12:33:47;3.92;;;3.40;;
31782;SDS011;18351;47.560;9.708;2022-09-03T12:36:15;6.95;;;3.72;;
31782;SDS011;18351;47.560;9.708;2022-09-03T12:38:41;8.07;;;3.28;;
31782;SDS011;18351;47.560;9.708;2022-09-03T12:41:20;2.92;;;2.58;;
31782;SDS011;18351;47.560;9.708;2022-09-03T12:43:52;3.15;;;2.80;;
31782;SDS011;18351;47.560;9.708;2022-09-03T12:46:23;3.50;;;2.40;;
31782;SDS011;18351;47.560;9.708;2022-09-03T12:49:04;3.90;;;2.63;;
31782;SDS011;18351;47.560;9.708;2022-09-03T12:51:32;5.65;;;2.60;;
31782;SDS011;18351;47.560;9.708;2022-09-03T12:54:00;5.45;;;2.65;;
31782;SDS011;18351;47.560;9.708;2022-09-03T12:56:28;3.55;;;2.50;;
31782;SDS011;18351;47.560;9.708;2022-09-03T12:59:02;2.70;;;2.20;;
31782;SDS011;18351;47.560;9.708;2022-09-03T13:01:39;3.33;;;2.05;;
31782;SDS011;18351;47.560;9.708;2022-09-03T13:04:12;4.10;;;2.58;;
31782;SDS011;18351;47.560;9.708;2022-09-03T13:06:46;4.13;;;2.72;;
31782;SDS011;18351;47.560;9.708;2022-09-03T13:09:15;3.10;;;2.30;;
31782;SDS011;18351;47.560;9.708;2022-09-03T13:11:46;3.13;;;2.40;;
31782;SDS011;18351;47.560;9.708;2022-09-03T13:14:13;2.20;;;1.88;;
31782;SDS011;18351;47.560;9.708;2022-09-03T13:27:32;2.42;;;1.80;;
31782;SDS011;18351;47.560;9.708;2022-09-03T13:30:08;1.88;;;1.67;;
31782;SDS011;18351;47.560;9.708;2022-09-03T13:32:40;1.67;;;1.55;;
31782;SDS011;18351;47.560;9.708;2022-09-03T13:35:37;3.45;;;1.30;;
31782;SDS011;18351;47.560;9.708;2022-09-03T13:38:18;1.33;;;1.20;;
31782;SDS011;18351;47.560;9.708;2022-09-03T13:45:53;1.73;;;1.35;;
31782;SDS011;18351;47.560;9.708;2022-09-03T13:48:36;1.60;;;1.15;;
31782;SDS011;18351;47.560;9.708;2022-09-03T13:51:47;2.45;;;1.20;;
31782;SDS011;18351;47.560;9.708;2022-09-03T14:00:09;1.60;;;0.90;;
31782;SDS011;18351;47.560;9.708;2022-09-03T14:02:51;1.00;;;1.00;;
31782;SDS011;18351;47.560;9.708;2022-09-03T14:10:54;1.30;;;1.17;;
31782;SDS011;18351;47.560;9.708;2022-09-03T14:18:57;1.30;;;0.98;;
31782;SDS011;18351;47.560;9.708;2022-09-03T14:21:33;1.25;;;1.08;;
31782;SDS011;18351;47.560;9.708;2022-09-03T14:24:09;1.17;;;1.08;;
31782;SDS011;18351;47.560;9.708;2022-09-03T14:26:53;1.20;;;1.10;;
31782;SDS011;18351;47.560;9.708;2022-09-03T14:29:27;1.10;;;0.82;;
31782;SDS011;18351;47.560;9.708;2022-09-03T14:51:25;4.03;;;1.20;;
31782;SDS011;18351;47.560;9.708;2022-09-03T15:05:06;1.88;;;1.33;;
31782;SDS011;18351;47.560;9.708;2022-09-03T15:07:53;1.45;;;1.20;;
31782;SDS011;18351;47.560;9.708;2022-09-03T15:10:34;2.35;;;1.25;;
31782;SDS011;18351;47.560;9.708;2022-09-03T15:16:17;1.75;;;1.20;;
31782;SDS011;18351;47.560;9.708;2022-09-03T15:21:52;2.20;;;1.75;;
31782;SDS011;18351;47.560;9.708;2022-09-03T15:24:49;2.40;;;1.52;;
31782;SDS011;18351;47.560;9.708;2022-09-03T15:27:38;2.63;;;1.38;;
31782;SDS011;18351;47.560;9.708;2022-09-03T15:30:15;2.03;;;1.10;;
31782;SDS011;18351;47.560;9.708;2022-09-03T15:32:59;1.50;;;1.17;;
31782;SDS011;18351;47.560;9.708;2022-09-03T15:41:29;2.15;;;1.52;;
31782;SDS011;18351;47.560;9.708;2022-09-03T15:44:06;1.25;;;1.15;;
31782;SDS011;18351;47.560;9.708;2022-09-03T15:46:39;2.53;;;1.50;;
31782;SDS011;18351;47.560;9.708;2022-09-03T15:49:25;1.30;;;0.88;;
31782;SDS011;18351;47.560;9.708;2022-09-03T15:52:25;1.20;;;1.10;;
31782;SDS011;18351;47.560;9.708;2022-09-03T15:55:10;2.17;;;1.35;;
31782;SDS011;18351;47.560;9.708;2022-09-03T15:57:46;1.77;;;1.10;;
31782;SDS011;18351;47.560;9.708;2022-09-03T16:00:19;1.83;;;1.17;;
31782;SDS011;18351;47.560;9.708;2022-09-03T16:05:37;2.15;;;1.70;;
31782;SDS011;18351;47.560;9.708;2022-09-03T16:08:13;3.83;;;1.27;;
31782;SDS011;18351;47.560;9.708;2022-09-03T16:10:57;1.50;;;1.40;;
31782;SDS011;18351;47.560;9.708;2022-09-03T16:19:40;1.63;;;1.20;;
31782;SDS011;18351;47.560;9.708;2022-09-03T16:22:25;1.58;;;1.48;;
31782;SDS011;18351;47.560;9.708;2022-09-03T16:24:59;1.33;;;1.20;;
31782;SDS011;18351;47.560;9.708;2022-09-03T16:35:32;2.83;;;1.30;;
31782;SDS011;18351;47.560;9.708;2022-09-03T16:38:10;1.10;;;1.00;;
31782;SDS011;18351;47.560;9.708;2022-09-03T16:43:22;1.35;;;1.25;;
31782;SDS011;18351;47.560;9.708;2022-09-03T16:59:58;3.85;;;1.67;;
31782;SDS011;18351;47.560;9.708;2022-09-03T17:02:40;2.00;;;1.80;;
31782;SDS011;18351;47.560;9.708;2022-09-03T17:05:21;3.80;;;2.00;;
31782;SDS011;18351;47.560;9.708;2022-09-03T17:08:23;2.13;;;1.33;;
31782;SDS011;18351;47.560;9.708;2022-09-03T17:14:19;1.55;;;1.45;;
31782;SDS011;18351;47.560;9.708;2022-09-03T17:16:57;1.40;;;1.30;;
31782;SDS011;18351;47.560;9.708;2022-09-03T17:25:18;2.08;;;1.45;;
31782;SDS011;18351;47.560;9.708;2022-09-03T17:27:50;3.90;;;2.10;;
31782;SDS011;18351;47.560;9.708;2022-09-03T17:30:42;1.95;;;1.70;;
31782;SDS011;18351;47.560;9.708;2022-09-03T17:36:11;1.40;;;1.30;;
31782;SDS011;18351;47.560;9.708;2022-09-03T17:46:49;1.98;;;1.58;;
31782;SDS011;18351;47.560;9.708;2022-09-03T17:49:32;2.55;;;1.05;;
31782;SDS011;18351;47.560;9.708;2022-09-03T17:52:01;1.77;;;1.20;;
31782;SDS011;18351;47.560;9.708;2022-09-03T17:54:43;1.30;;;1.20;;
31782;SDS011;18351;47.560;9.708;2022-09-03T17:57:17;1.85;;;1.40;;
31782;SDS011;18351;47.560;9.708;2022-09-03T17:59:54;2.78;;;1.40;;
31782;SDS011;18351;47.560;9.708;2022-09-03T18:02:50;1.70;;;1.40;;
31782;SDS011;18351;47.560;9.708;2022-09-03T18:05:26;3.20;;;1.33;;
31782;SDS011;18351;47.560;9.708;2022-09-03T18:10:31;3.28;;;1.40;;
31782;SDS011;18351;47.560;9.708;2022-09-03T18:16:02;1.60;;;1.48;;
31782;SDS011;18351;47.560;9.708;2022-09-03T18:18:30;2.25;;;1.73;;
31782;SDS011;18351;47.560;9.708;2022-09-03T18:20:58;2.40;;;1.45;;
31782;SDS011;18351;47.560;9.708;2022-09-03T18:27:14;3.42;;;1.50;;
31782;SDS011;18351;47.560;9.708;2022-09-03T18:30:09;3.70;;;1.40;;
31782;SDS011;18351;47.560;9.708;2022-09-03T18:32:55;1.60;;;1.50;;
31782;SDS011;18351;47.560;9.708;2022-09-03T18:35:42;1.95;;;1.42;;
31782;SDS011;18351;47.560;9.708;2022-09-03T18:38:32;2.55;;;1.65;;
31782;SDS011;18351;47.560;9.708;2022-09-03T18:41:34;2.30;;;1.90;;
31782;SDS011;18351;47.560;9.708;2022-09-03T18:47:28;2.28;;;1.60;;
31782;SDS011;18351;47.560;9.708;2022-09-03T18:56:36;2.38;;;1.40;;
31782;SDS011;18351;47.560;9.708;2022-09-03T19:02:32;3.08;;;1.95;;
31782;SDS011;18351;47.560;9.708;2022-09-03T19:11:23;4.40;;;1.95;;
31782;SDS011;18351;47.560;9.708;2022-09-03T19:17:29;1.67;;;1.50;;
31782;SDS011;18351;47.560;9.708;2022-09-03T19:20:35;4.88;;;2.10;;
31782;SDS011;18351;47.560;9.708;2022-09-03T19:23:22;3.17;;;2.70;;
31782;SDS011;18351;47.560;9.708;2022-09-03T19:29:02;2.53;;;1.90;;
31782;SDS011;18351;47.560;9.708;2022-09-03T19:31:56;3.00;;;2.08;;
31782;SDS011;18351;47.560;9.708;2022-09-03T19:37:56;2.60;;;2.10;;
31782;SDS011;18351;47.560;9.708;2022-09-03T19:43:35;1.75;;;1.60;;
31782;SDS011;18351;47.560;9.708;2022-09-03T19:46:34;5.13;;;1.85;;
31782;SDS011;18351;47.560;9.708;2022-09-03T19:55:48;2.80;;;1.98;;
31782;SDS011;18351;47.560;9.708;2022-09-03T19:58:42;3.43;;;2.00;;
31782;SDS011;18351;47.560;9.708;2022-09-03T20:01:34;4.55;;;2.28;;
31782;SDS011;18351;47.560;9.708;2022-09-03T20:04:20;2.38;;;2.00;;
31782;SDS011;18351;47.560;9.708;2022-09-03T20:07:14;4.90;;;2.00;;
31782;SDS011;18351;47.560;9.708;2022-09-03T20:10:00;2.42;;;2.22;;
31782;SDS011;18351;47.560;9.708;2022-09-03T20:12:49;2.40;;;2.08;;
31782;SDS011;18351;47.560;9.708;2022-09-03T20:23:39;3.70;;;2.30;;
31782;SDS011;18351;47.560;9.708;2022-09-03T20:28:59;3.58;;;1.70;;
31782;SDS011;18351;47.560;9.708;2022-09-03T20:34:18;4.60;;;2.30;;
31782;SDS011;18351;47.560;9.708;2022-09-03T20:37:14;2.25;;;1.85;;
31782;SDS011;18351;47.560;9.708;2022-09-03T20:45:36;2.80;;;1.30;;
31782;SDS011;18351;47.560;9.708;2022-09-03T20:51:04;1.95;;;1.42;;
31782;SDS011;18351;47.560;9.708;2022-09-03T20:53:49;4.72;;;1.60;;
31782;SDS011;18351;47.560;9.708;2022-09-03T20:56:26;2.25;;;1.60;;
31782;SDS011;18351;47.560;9.708;2022-09-03T21:12:51;2.10;;;1.85;;